Time;durP1;ratioP1;P1;durP2;ratioP2;P2;SDS_P1;SDS_P2;PMS_P1;PMS_P2;Temp;Humidity;BMP_temperature;BMP_pressure;BME280_temperature;BME280_humidity;BME280_pressure;Samples;Min_cycle;Max_cycle;Signal;HPM_P1;HPM_P2
2022/01/17 00:00:16;;;;;;;34.38;15.98;;;;;;;4.57;52.73;101355.09;5053106;28;20025;-81
2022/01/17 00:02:42;;;;;;;33.83;14.60;;;;;;;4.63;52.34;101357.47;5053004;28;20045;-81
2022/01/17 00:05:09;;;;;;;38.00;14.38;;;;;;;4.70;52.34;101353.59;5052971;28;20108;-81
2022/01/17 00:07:36;;;;;;;28.15;13.90;;;;;;;4.64;52.12;101340.56;5035753;28;20425;-78
2022/01/17 00:10:04;;;;;;;23.38;12.18;;;;;;;4.82;52.16;101353.03;5023638;28;20119;-79
2022/01/17 00:12:33;;;;;;;29.77;13.15;;;;;;;4.83;51.99;101355.63;5053212;28;20116;-81
2022/01/17 00:14:58;;;;;;;22.98;12.05;;;;;;;4.88;52.06;101356.28;5053131;28;20032;-79
2022/01/17 00:17:37;;;;;;;29.55;13.30;;;;;;;4.90;51.71;101348.19;5053151;28;20037;-80
2022/01/17 00:20:11;;;;;;;32.03;12.75;;;;;;;4.89;51.29;101328.69;5053406;28;20056;-80
2022/01/17 00:22:39;;;;;;;33.72;11.93;;;;;;;5.02;51.60;101339.63;5036797;28;20032;-79
2022/01/17 00:25:05;;;;;;;27.58;13.98;;;;;;;5.05;51.39;101355.47;5053179;28;20021;-80
2022/01/17 00:27:32;;;;;;;28.60;14.68;;;;;;;5.00;51.81;101336.19;5052899;28;20053;-80
2022/01/17 00:29:58;;;;;;;54.47;21.23;;;;;;;5.00;51.43;101346.84;5051673;28;20028;-79
2022/01/17 00:32:24;;;;;;;56.17;25.90;;;;;;;5.00;51.76;101351.31;5052901;28;20444;-80
2022/01/17 00:34:49;;;;;;;54.90;25.10;;;;;;;4.97;51.76;101341.66;5053057;28;20032;-80
2022/01/17 00:37:15;;;;;;;37.83;17.88;;;;;;;4.92;51.61;101333.03;5052972;28;20045;-80
2022/01/17 00:39:40;;;;;;;35.33;17.17;;;;;;;4.83;51.49;101326.28;5056668;28;20028;-80
2022/01/17 00:42:06;;;;;;;48.92;22.83;;;;;;;4.93;51.60;101334.72;5057534;28;20037;-80
2022/01/17 00:44:32;;;;;;;30.63;16.33;;;;;;;4.82;51.71;101327.25;5056284;28;20021;-81
2022/01/17 00:46:57;;;;;;;38.92;17.95;;;;;;;4.81;51.69;101327.31;5055422;28;20024;-81
2022/01/17 00:49:23;;;;;;;42.78;18.48;;;;;;;4.66;52.14;101320.03;5053740;28;20029;-80
2022/01/17 00:51:49;;;;;;;37.20;16.05;;;;;;;4.65;51.99;101310.28;5053519;28;20031;-80
2022/01/17 00:54:14;;;;;;;33.75;17.40;;;;;;;4.65;51.95;101312.97;5053238;28;20029;-80
2022/01/17 00:56:40;;;;;;;34.20;14.32;;;;;;;4.59;52.52;101303.47;5038356;28;20021;-80
2022/01/17 00:59:05;;;;;;;29.70;14.68;;;;;;;4.53;52.16;101298.41;5057043;28;20036;-80
2022/01/17 01:01:31;;;;;;;27.63;14.75;;;;;;;4.32;52.56;101300.25;5056893;28;20398;-80
2022/01/17 01:03:57;;;;;;;33.72;14.68;;;;;;;4.24;52.50;101280.25;5056420;28;20078;-80
2022/01/17 01:06:23;;;;;;;35.30;14.70;;;;;;;4.33;52.21;101285.16;5056284;28;20029;-80
2022/01/17 01:08:48;;;;;;;30.92;14.05;;;;;;;4.23;52.70;101274.03;5060305;28;20019;-80
2022/01/17 01:11:14;;;;;;;24.45;13.10;;;;;;;4.31;52.49;101260.41;5074688;28;20028;-80
2022/01/17 01:13:39;;;;;;;40.33;14.88;;;;;;;4.39;52.35;101259.09;5056562;28;20053;-79
2022/01/17 01:29:03;;;;;;;31.85;13.57;;;;;;;4.68;51.50;101235.59;5055562;28;20056;-79
2022/01/17 01:31:42;;;;;;;29.02;12.95;;;;;;;4.58;51.24;101220.97;5055076;28;20021;-80
2022/01/17 01:34:09;;;;;;;27.73;13.80;;;;;;;4.73;51.35;101220.22;5055602;28;20021;-80
2022/01/17 01:36:35;;;;;;;40.88;16.25;;;;;;;4.86;51.09;101221.38;5055473;28;20029;-80
2022/01/17 01:39:03;;;;;;;30.35;17.10;;;;;;;4.92;51.28;101211.25;5056456;28;20056;-80
2022/01/17 01:41:29;;;;;;;32.22;15.57;;;;;;;4.95;50.71;101204.94;5056989;28;20028;-80
2022/01/17 01:43:54;;;;;;;33.28;17.45;;;;;;;4.89;51.01;101194.59;5056787;28;20036;-80
2022/01/17 01:46:20;;;;;;;35.15;17.73;;;;;;;4.93;51.24;101201.47;5056765;28;20025;-80
2022/01/17 01:48:46;;;;;;;30.25;14.73;;;;;;;4.93;51.23;101183.69;5055912;28;20414;-80
2022/01/17 01:51:12;;;;;;;38.10;16.05;;;;;;;4.98;51.05;101194.13;5056788;28;20032;-80
2022/01/17 01:53:38;;;;;;;37.30;13.75;;;;;;;4.84;51.06;101186.78;5057156;28;20025;-80
2022/01/17 01:56:04;;;;;;;26.58;13.73;;;;;;;4.88;50.95;101187.50;5037999;28;20059;-80
2022/01/17 01:58:29;;;;;;;28.38;13.35;;;;;;;4.86;50.76;101178.75;5057237;28;20112;-81
2022/01/17 02:00:55;;;;;;;35.53;15.20;;;;;;;4.85;51.28;101180.53;5037752;28;20466;-79
2022/01/17 02:03:21;;;;;;;38.17;14.73;;;;;;;4.76;51.35;101166.78;5055631;28;20025;-80
2022/01/17 02:05:47;;;;;;;24.77;13.90;;;;;;;4.70;51.12;101156.44;5055053;28;20057;-80
2022/01/17 02:08:13;;;;;;;27.42;14.50;;;;;;;4.61;51.11;101156.88;5054723;28;20056;-81
2022/01/17 02:10:39;;;;;;;24.48;13.15;;;;;;;4.74;51.29;101155.38;5055461;28;20028;-80
2022/01/17 02:13:05;;;;;;;27.13;11.95;;;;;;;4.66;50.85;101138.88;5055012;28;20082;-80
2022/01/17 02:15:30;;;;;;;24.42;12.48;;;;;;;4.74;50.50;101158.03;5054646;28;20025;-80
2022/01/17 02:17:57;;;;;;;21.30;12.80;;;;;;;4.73;50.48;101149.16;5054759;28;20456;-80
2022/01/17 02:20:39;;;;;;;22.05;11.20;;;;;;;4.77;50.15;101141.88;5054773;28;20024;-79
2022/01/17 02:23:06;;;;;;;25.20;12.65;;;;;;;4.77;50.51;101137.41;5055158;28;20036;-80
2022/01/17 02:25:32;;;;;;;25.90;11.02;;;;;;;4.84;50.34;101138.81;5054681;28;20082;-80
2022/01/17 02:27:58;;;;;;;21.95;11.05;;;;;;;4.87;49.77;101127.16;5054817;28;20433;-81
2022/01/17 02:30:26;;;;;;;24.58;12.88;;;;;;;4.94;49.99;101128.56;5055262;28;20044;-80
2022/01/17 02:32:51;;;;;;;26.77;13.93;;;;;;;4.94;49.80;101123.25;5054851;28;20032;-80
2022/01/17 02:35:24;;;;;;;37.53;15.55;;;;;;;4.85;50.03;101113.03;5055104;28;20029;-80
2022/01/17 02:37:51;;;;;;;29.45;14.38;;;;;;;4.91;49.98;101126.06;5054572;28;20388;-80
2022/01/17 02:40:19;;;;;;;31.38;14.23;;;;;;;4.87;49.82;101119.16;5054958;28;20028;-81
2022/01/17 02:42:56;;;;;;;27.15;14.88;;;;;;;4.77;50.17;101115.25;5054597;28;20036;-80
2022/01/17 02:45:36;;;;;;;24.48;13.07;;;;;;;4.72;50.32;101098.59;5055057;28;20111;-80
2022/01/17 02:48:07;;;;;;;23.02;13.00;;;;;;;4.80;50.06;101089.28;5061596;28;20017;-81
2022/01/17 02:50:33;;;;;;;27.90;13.80;;;;;;;4.90;50.09;101089.69;5072123;28;20405;-80
2022/01/17 02:53:02;;;;;;;33.85;15.38;;;;;;;4.91;50.08;101091.41;5054777;28;20044;-80
2022/01/17 02:55:28;;;;;;;22.80;12.82;;;;;;;4.94;49.81;101081.47;5036959;28;20478;-80
2022/01/17 02:57:55;;;;;;;57.13;24.98;;;;;;;4.96;49.67;101076.03;5054369;28;20053;-80
2022/01/17 03:00:21;;;;;;;28.13;14.75;;;;;;;4.95;49.69;101080.50;5054281;28;20027;-80
2022/01/17 03:02:49;;;;;;;70.18;35.75;;;;;;;5.02;49.79;101083.72;5054251;28;20425;-80
2022/01/17 03:05:19;;;;;;;40.38;23.02;;;;;;;5.11;50.07;101082.38;5054352;28;20494;-80
2022/01/17 03:07:45;;;;;;;50.45;26.83;;;;;;;5.07;49.69;101064.84;5054177;28;20031;-80
2022/01/17 03:10:25;;;;;;;40.63;20.23;;;;;;;5.13;49.66;101070.72;5053602;28;20103;-80
2022/01/17 03:12:50;;;;;;;36.97;21.00;;;;;;;5.20;49.54;101065.94;5054416;28;20359;-80
2022/01/17 03:15:15;;;;;;;35.05;16.05;;;;;;;5.18;49.58;101060.69;5053580;28;20029;-80
2022/01/17 03:17:41;;;;;;;26.25;13.68;;;;;;;5.08;49.20;101046.09;5053883;28;20442;-82
2022/01/17 03:20:07;;;;;;;22.80;11.52;;;;;;;5.06;49.36;101057.78;5053289;28;20086;-80
2022/01/17 03:22:35;;;;;;;27.55;13.32;;;;;;;5.08;49.74;101046.09;5054332;28;20108;-79
2022/01/17 03:25:01;;;;;;;31.35;13.70;;;;;;;5.10;49.66;101038.91;5053789;28;20402;-80
2022/01/17 03:27:26;;;;;;;25.67;12.05;;;;;;;5.16;49.36;101035.91;5053497;28;20049;-79
2022/01/17 03:29:52;;;;;;;46.92;20.33;;;;;;;5.05;50.00;101027.59;5055548;28;20033;-80
2022/01/17 03:32:17;;;;;;;33.05;16.52;;;;;;;4.95;50.41;101039.69;5054345;28;20106;-80
2022/01/17 03:34:43;;;;;;;38.08;19.90;;;;;;;4.89;50.74;101040.00;5053884;28;20017;-80
2022/01/17 03:37:08;;;;;;;36.80;20.10;;;;;;;4.86;51.19;101045.50;5053657;28;20078;-79
2022/01/17 03:39:34;;;;;;;53.78;21.60;;;;;;;4.60;51.78;101037.94;5053498;28;20059;-80
2022/01/17 03:42:01;;;;;;;48.78;21.77;;;;;;;4.51;52.17;101017.97;5053343;28;20474;-80
2022/01/17 03:44:26;;;;;;;57.97;24.80;;;;;;;4.45;52.46;101022.72;5053293;28;20036;-81
2022/01/17 03:46:52;;;;;;;57.53;26.77;;;;;;;4.45;52.31;101018.28;5053067;28;20390;-80
2022/01/17 03:49:17;;;;;;;50.40;22.88;;;;;;;4.46;52.47;101020.00;5053477;28;20093;-79
2022/01/17 03:51:43;;;;;;;48.88;22.70;;;;;;;4.60;52.30;101035.28;5053223;28;20500;-81
2022/01/17 03:54:08;;;;;;;39.08;21.25;;;;;;;4.63;52.19;101037.78;5053374;28;20020;-81
2022/01/17 03:56:34;;;;;;;44.42;23.98;;;;;;;4.55;52.25;101040.84;5053114;28;20359;-81
2022/01/17 03:58:59;;;;;;;52.20;23.65;;;;;;;4.23;53.14;101028.25;5053276;28;20039;-80
2022/01/17 04:01:25;;;;;;;46.38;24.30;;;;;;;4.13;54.09;101037.63;5052854;28;20129;-82
2022/01/17 04:03:50;;;;;;;60.92;25.45;;;;;;;3.96;54.49;101035.78;5053133;28;20031;-81
2022/01/17 04:06:17;;;;;;;58.35;25.00;;;;;;;3.68;55.23;101035.34;5052924;28;20029;-79
2022/01/17 04:08:42;;;;;;;46.92;23.67;;;;;;;3.69;55.87;101029.97;5053033;28;20024;-78
2022/01/17 04:11:08;;;;;;;53.97;24.65;;;;;;;3.69;55.92;101026.44;5054380;28;20466;-79
2022/01/17 04:13:34;;;;;;;48.08;24.15;;;;;;;3.70;56.01;101025.53;5070070;28;20075;-79
2022/01/17 04:16:00;;;;;;;55.85;27.33;;;;;;;3.70;56.16;101009.56;5072264;28;20088;-80
2022/01/17 04:18:26;;;;;;;48.85;24.15;;;;;;;3.75;56.46;101012.84;5069903;28;20025;-79
2022/01/17 04:20:53;;;;;;;34.58;19.10;;;;;;;3.87;56.09;101020.25;5060509;28;20029;-80
2022/01/17 04:23:19;;;;;;;30.15;15.25;;;;;;;3.99;55.14;101016.13;5061972;28;20025;-80
2022/01/17 04:25:45;;;;;;;29.48;15.65;;;;;;;4.07;54.37;101006.84;5056770;28;20033;-80
2022/01/17 04:28:13;;;;;;;27.25;14.48;;;;;;;4.23;53.56;101001.63;5069354;28;20057;-80
2022/01/17 04:30:40;;;;;;;35.85;15.70;;;;;;;4.22;53.11;101014.06;5041677;28;20045;-79
2022/01/17 04:33:06;;;;;;;30.70;14.10;;;;;;;4.23;52.74;101004.28;5056318;28;20124;-79
2022/01/17 04:35:33;;;;;;;33.70;15.38;;;;;;;4.19;52.92;101000.91;5056361;28;20029;-80
2022/01/17 04:38:13;;;;;;;24.58;13.90;;;;;;;4.10;52.65;101012.00;5057589;28;20402;-80
2022/01/17 04:40:40;;;;;;;23.95;13.45;;;;;;;4.13;52.94;101006.53;5057677;28;20028;-82
2022/01/17 04:43:17;;;;;;;23.80;12.30;;;;;;;4.17;53.00;101008.13;5058367;28;20036;-82
2022/01/17 04:45:43;;;;;;;25.90;12.50;;;;;;;4.21;53.16;101004.38;5061191;28;20035;-81
2022/01/17 04:48:09;;;;;;;21.58;12.13;;;;;;;4.25;52.89;101005.94;5069899;28;20036;-80
2022/01/17 04:50:34;;;;;;;28.25;13.57;;;;;;;4.26;53.23;101001.47;5075873;28;20530;-79
2022/01/17 04:53:01;;;;;;;27.15;14.40;;;;;;;4.29;52.78;101009.31;5076325;28;20043;-80
2022/01/17 04:55:28;;;;;;;30.65;16.00;;;;;;;4.38;52.62;101006.19;5075848;28;20032;-81
2022/01/17 04:57:56;;;;;;;34.40;16.15;;;;;;;4.33;52.34;100998.44;5076104;28;20020;-80
2022/01/17 05:00:23;;;;;;;31.25;16.52;;;;;;;4.38;52.58;100993.75;5076238;28;20454;-81
2022/01/17 05:02:49;;;;;;;54.35;18.75;;;;;;;4.41;52.48;101000.72;5077699;28;20093;-81
2022/01/17 05:05:15;;;;;;;35.03;16.80;;;;;;;4.32;52.66;100996.72;5075523;28;20398;-79
2022/01/17 05:07:41;;;;;;;38.92;15.73;;;;;;;4.39;52.17;101003.47;5075596;28;20478;-78
2022/01/17 05:10:17;;;;;;;36.92;17.60;;;;;;;4.47;52.11;101002.19;5075653;28;20047;-79
2022/01/17 05:12:44;;;;;;;32.47;16.40;;;;;;;4.39;52.63;101003.47;5075469;28;20454;-80
2022/01/17 05:15:22;;;;;;;31.67;16.73;;;;;;;4.49;52.31;101000.34;5076852;28;20032;-81
2022/01/17 05:20:31;;;;;;;22.98;13.02;;;;;;;4.64;52.18;100991.56;5075335;28;20038;-81
2022/01/17 05:22:57;;;;;;;28.73;14.75;;;;;;;4.68;51.88;100990.50;5075156;28;20028;-80
2022/01/17 05:25:23;;;;;;;42.92;14.45;;;;;;;4.72;51.66;100984.03;5075269;28;20137;-80
2022/01/17 05:27:49;;;;;;;32.95;16.35;;;;;;;4.77;51.56;100996.19;5074930;28;20053;-80
2022/01/17 05:30:16;;;;;;;40.67;16.15;;;;;;;4.82;51.39;100993.28;5075621;28;20021;-81
2022/01/17 05:32:42;;;;;;;34.67;15.73;;;;;;;4.83;51.28;100981.69;5075598;28;20439;-80
2022/01/17 05:35:09;;;;;;;50.92;15.80;;;;;;;4.84;51.26;100978.94;5075298;28;20024;-80
2022/01/17 05:37:35;;;;;;;34.30;13.40;;;;;;;4.92;51.16;100984.72;5075620;28;20025;-81
2022/01/17 05:40:01;;;;;;;32.28;14.25;;;;;;;4.90;50.98;100991.06;5075642;28;20024;-79
2022/01/17 05:42:26;;;;;;;36.40;14.60;;;;;;;4.92;50.93;100986.56;5073912;28;20033;-79
2022/01/17 05:44:53;;;;;;;30.10;13.88;;;;;;;4.95;51.04;100981.91;5074751;28;20048;-79
2022/01/17 05:47:19;;;;;;;34.15;14.50;;;;;;;4.89;50.95;100973.38;5074350;28;20032;-80
2022/01/17 05:49:47;;;;;;;33.13;15.07;;;;;;;4.98;50.77;100988.88;5058495;28;20033;-81
2022/01/17 05:52:13;;;;;;;38.00;15.40;;;;;;;5.00;50.94;100979.00;5056612;28;20391;-80
2022/01/17 05:54:40;;;;;;;39.08;17.95;;;;;;;5.06;50.97;100976.00;5056826;28;20021;-80
2022/01/17 05:57:05;;;;;;;36.60;18.05;;;;;;;5.17;50.79;100981.63;5055793;28;20033;-81
2022/01/17 05:59:32;;;;;;;42.85;18.98;;;;;;;5.20;50.56;100978.78;5055123;28;20032;-78
2022/01/17 06:01:58;;;;;;;41.53;17.98;;;;;;;5.25;50.85;100970.56;5054884;28;20488;-78
2022/01/17 06:04:23;;;;;;;41.22;17.83;;;;;;;5.22;50.43;100966.25;5055235;28;20109;-79
2022/01/17 06:06:49;;;;;;;32.83;15.68;;;;;;;5.22;50.49;100968.94;5060072;28;20109;-79
2022/01/17 06:09:15;;;;;;;38.97;16.65;;;;;;;5.24;50.56;100977.69;5058503;28;20068;-79
2022/01/17 06:11:41;;;;;;;34.80;18.38;;;;;;;5.16;50.59;100955.91;5055342;28;20406;-80
2022/01/17 06:14:08;;;;;;;41.55;17.83;;;;;;;5.21;50.77;100956.53;5055561;28;20056;-81
2022/01/17 06:16:35;;;;;;;39.33;18.17;;;;;;;5.34;50.27;100952.25;5055483;28;20033;-81
2022/01/17 06:19:00;;;;;;;39.45;19.58;;;;;;;5.37;50.25;100941.41;5054723;28;20021;-80
2022/01/17 06:21:26;;;;;;;43.33;20.27;;;;;;;5.44;50.04;100937.44;5049853;28;20439;-84
2022/01/17 06:23:52;;;;;;;57.47;23.30;;;;;;;5.58;49.90;100957.16;5058722;28;20451;-81
2022/01/17 06:26:19;;;;;;;49.08;22.48;;;;;;;5.55;49.96;100936.00;5056044;28;20032;-82
2022/01/17 06:28:44;;;;;;;48.78;23.65;;;;;;;5.65;49.92;100935.41;5053695;28;20128;-80
2022/01/17 06:31:10;;;;;;;55.05;21.75;;;;;;;5.73;49.65;100932.31;5052222;28;20103;-78
2022/01/17 06:33:35;;;;;;;41.33;20.25;;;;;;;5.78;49.55;100940.94;5054645;28;20398;-80
2022/01/17 06:36:01;;;;;;;42.95;22.08;;;;;;;5.76;49.36;100927.66;5053853;28;20025;-78
2022/01/17 06:38:26;;;;;;;42.00;19.63;;;;;;;5.87;49.15;100932.44;5054390;28;20036;-79
2022/01/17 06:40:52;;;;;;;49.70;18.63;;;;;;;5.99;49.03;100931.72;5053994;28;20020;-79
2022/01/17 06:43:17;;;;;;;41.08;18.38;;;;;;;6.06;48.92;100940.22;5053888;28;20025;-80
2022/01/17 06:45:43;;;;;;;47.92;19.30;;;;;;;6.05;48.53;100935.84;5053771;28;20024;-80
2022/01/17 06:48:09;;;;;;;39.60;18.05;;;;;;;6.06;48.42;100933.06;5053896;28;20463;-80
2022/01/17 06:50:35;;;;;;;48.70;21.67;;;;;;;6.09;48.47;100935.56;5054033;28;20090;-79
2022/01/17 06:53:02;;;;;;;44.78;21.38;;;;;;;6.11;48.43;100935.50;5053650;28;20025;-81
2022/01/17 06:55:27;;;;;;;52.55;20.80;;;;;;;6.22;48.34;100928.56;5054010;28;20107;-81
2022/01/17 06:57:53;;;;;;;43.58;20.10;;;;;;;6.19;47.92;100909.19;5053629;28;20451;-78
2022/01/17 07:00:20;;;;;;;37.35;19.98;;;;;;;6.17;47.91;100914.63;5053746;28;20063;-79
2022/01/17 07:02:48;;;;;;;43.67;17.63;;;;;;;6.18;47.95;100912.78;5053693;28;20025;-80
2022/01/17 07:05:14;;;;;;;42.97;17.77;;;;;;;6.17;47.84;100906.63;5053775;28;20025;-80
2022/01/17 07:07:41;;;;;;;32.40;16.63;;;;;;;6.11;47.97;100904.31;5053374;28;20482;-82
2022/01/17 07:10:07;;;;;;;51.88;20.67;;;;;;;6.06;48.03;100897.50;5039847;28;20044;-80
2022/01/17 07:12:35;;;;;;;52.45;24.48;;;;;;;6.05;48.00;100910.00;5033832;28;20033;-79
2022/01/17 07:15:00;;;;;;;32.30;15.70;;;;;;;6.01;47.74;100909.31;5033250;28;20491;-79
2022/01/17 07:17:26;;;;;;;37.85;18.10;;;;;;;6.08;47.91;100919.66;5042529;28;20044;-79
2022/01/17 07:19:51;;;;;;;41.78;20.02;;;;;;;6.05;48.22;100896.66;5054577;28;20017;-81
2022/01/17 07:22:17;;;;;;;36.90;16.55;;;;;;;6.08;47.76;100884.94;5053263;28;20205;-79
2022/01/17 07:24:44;;;;;;;45.25;17.92;;;;;;;6.11;47.98;100863.41;5053554;28;20021;-80
2022/01/17 07:27:10;;;;;;;42.28;16.00;;;;;;;6.14;47.77;100858.75;5053427;28;20044;-80
2022/01/17 07:29:36;;;;;;;43.28;19.83;;;;;;;6.16;48.00;100862.16;5035450;28;20458;-80
2022/01/17 07:32:02;;;;;;;47.40;20.08;;;;;;;6.10;47.98;100861.66;5053620;28;20031;-80
2022/01/17 07:34:27;;;;;;;42.05;18.80;;;;;;;6.11;48.00;100858.06;5053575;28;20028;-79
2022/01/17 07:36:53;;;;;;;40.17;21.13;;;;;;;6.22;48.16;100851.13;5053233;28;20025;-78
2022/01/17 07:39:18;;;;;;;55.75;20.60;;;;;;;6.31;47.58;100839.88;5035592;28;20078;-78
2022/01/17 07:41:44;;;;;;;56.33;21.35;;;;;;;6.38;47.50;100825.22;5052988;28;20029;-79
2022/01/17 07:44:18;;;;;;;46.08;20.83;;;;;;;6.37;47.43;100818.13;5052806;28;20032;-77
2022/01/17 07:46:55;;;;;;;47.33;20.73;;;;;;;6.36;47.34;100837.78;5059933;28;20032;-78
2022/01/17 07:49:21;;;;;;;39.00;21.02;;;;;;;6.34;47.36;100844.16;5069290;28;20036;-78
2022/01/17 07:51:59;;;;;;;50.00;21.42;;;;;;;6.45;47.05;100853.25;5036026;28;20032;-78
2022/01/17 07:54:30;;;;;;;37.65;16.85;;;;;;;6.55;46.58;100872.25;5053855;28;20021;-80
2022/01/17 07:56:57;;;;;;;46.83;16.77;;;;;;;6.63;46.76;100869.13;5053056;28;20025;-78
2022/01/17 07:59:23;;;;;;;38.78;17.20;;;;;;;6.56;45.98;100864.16;5053629;28;20486;-79
2022/01/17 08:01:49;;;;;;;56.90;17.83;;;;;;;6.65;46.34;100883.25;5053487;28;20028;-80
2022/01/17 08:04:15;;;;;;;40.00;16.15;;;;;;;6.78;46.11;100892.25;5053147;28;20482;-79
2022/01/17 08:06:41;;;;;;;33.97;14.82;;;;;;;6.73;45.80;100895.19;5054973;28;20063;-79
2022/01/17 08:09:09;;;;;;;52.30;14.18;;;;;;;6.91;45.39;100936.81;5060519;28;20043;-80
2022/01/17 08:11:34;;;;;;;37.53;15.57;;;;;;;7.04;44.71;100952.97;5052667;28;20031;-80
2022/01/17 08:14:00;;;;;;;34.55;13.98;;;;;;;6.95;44.82;100950.88;5034040;28;20390;-79
2022/01/17 08:16:26;;;;;;;43.97;14.82;;;;;;;6.91;45.07;100942.16;5054971;28;20024;-79
2022/01/17 08:18:52;;;;;;;38.38;14.32;;;;;;;7.03;44.67;100929.88;5054144;28;20024;-79
2022/01/17 08:21:18;;;;;;;36.97;16.15;;;;;;;7.18;44.79;100931.59;5051463;28;20025;-79
2022/01/17 08:23:44;;;;;;;34.17;15.52;;;;;;;7.09;44.68;100906.28;5054901;28;20090;-79
2022/01/17 08:26:09;;;;;;;31.20;15.52;;;;;;;7.25;44.31;100897.31;5053325;28;20538;-78
2022/01/17 08:28:35;;;;;;;29.98;13.65;;;;;;;7.23;44.29;100884.03;5053307;28;20037;-80
2022/01/17 08:31:00;;;;;;;40.58;15.13;;;;;;;7.45;44.36;100873.66;5054111;28;20080;-80
2022/01/17 08:33:26;;;;;;;32.53;14.27;;;;;;;7.32;43.82;100813.00;5056036;28;20393;-78
2022/01/17 08:35:51;;;;;;;33.58;12.32;;;;;;;7.58;43.36;100821.03;5039192;28;20021;-79
2022/01/17 08:38:17;;;;;;;31.70;13.63;;;;;;;7.69;43.00;100812.31;5052853;28;20047;-80
2022/01/17 08:40:42;;;;;;;33.13;14.27;;;;;;;7.86;43.25;100803.16;5053140;28;20440;-80
2022/01/17 08:43:08;;;;;;;30.58;13.57;;;;;;;7.89;42.75;100800.28;5052204;28;20037;-79
2022/01/17 08:45:35;;;;;;;33.63;14.30;;;;;;;7.90;42.96;100789.44;5052463;28;20028;-79
2022/01/17 08:48:00;;;;;;;34.03;14.35;;;;;;;7.97;43.81;100768.47;5040442;28;20018;-80
2022/01/17 08:50:27;;;;;;;37.28;13.32;;;;;;;8.00;43.07;100768.25;5012711;28;20029;-78
2022/01/17 08:52:52;;;;;;;29.80;14.30;;;;;;;8.09;42.97;100789.06;5012963;28;20399;-79
2022/01/17 08:55:18;;;;;;;35.00;13.90;;;;;;;8.02;42.45;100767.19;5012775;28;20018;-80
2022/01/17 08:57:43;;;;;;;50.70;16.40;;;;;;;8.13;42.73;100769.16;5013379;28;20411;-80
2022/01/17 09:00:13;;;;;;;34.03;16.00;;;;;;;8.14;42.25;100744.06;5013083;28;20025;-80
2022/01/17 09:02:39;;;;;;;37.45;15.63;;;;;;;8.12;42.15;100724.56;5012665;28;20022;-80
2022/01/17 09:05:07;;;;;;;39.47;15.93;;;;;;;8.09;42.36;100708.69;5012941;28;20075;-79
2022/01/17 09:07:34;;;;;;;34.10;17.63;;;;;;;8.23;42.94;100716.63;5016215;28;20341;-79
2022/01/17 09:10:00;;;;;;;36.75;16.27;;;;;;;8.26;42.39;100729.78;5002384;28;20125;-79
2022/01/17 09:12:25;;;;;;;34.55;16.88;;;;;;;8.21;42.08;100721.25;5016846;28;20127;-79
2022/01/17 09:14:51;;;;;;;40.88;18.75;;;;;;;8.12;42.43;100713.84;5012715;28;20018;-80
2022/01/17 09:17:16;;;;;;;39.15;17.40;;;;;;;8.15;41.96;100719.00;5013466;28;20463;-80
2022/01/17 09:19:42;;;;;;;32.38;16.38;;;;;;;8.06;41.97;100693.72;5016475;28;20025;-79
2022/01/17 09:22:09;;;;;;;35.72;16.58;;;;;;;8.10;41.70;100713.94;4998478;28;20076;-81
2022/01/17 09:24:37;;;;;;;28.13;15.38;;;;;;;8.08;42.04;100723.91;5016486;28;20368;-80
2022/01/17 09:27:05;;;;;;;37.53;15.98;;;;;;;8.25;41.70;100709.34;5024231;28;20018;-79
2022/01/17 09:29:31;;;;;;;30.05;14.73;;;;;;;8.31;41.32;100698.22;5032590;28;20052;-79
2022/01/17 09:31:57;;;;;;;26.98;13.73;;;;;;;8.23;41.13;100689.81;5016907;28;20502;-79
2022/01/17 09:34:23;;;;;;;27.02;13.43;;;;;;;8.39;41.29;100701.22;5015707;28;20072;-78
2022/01/17 09:36:48;;;;;;;37.58;13.68;;;;;;;8.56;41.17;100686.63;5015949;28;20510;-79
2022/01/17 09:39:14;;;;;;;52.13;17.08;;;;;;;8.72;40.91;100679.16;5022030;28;20053;-79
2022/01/17 09:41:40;;;;;;;55.90;16.73;;;;;;;8.86;40.38;100665.63;5037119;28;20045;-79
2022/01/17 09:44:06;;;;;;;46.75;17.38;;;;;;;8.88;39.28;100652.94;5038179;28;20060;-79
2022/01/17 09:46:39;;;;;;;30.33;13.70;;;;;;;9.06;38.96;100654.25;5025850;28;20033;-79
2022/01/17 09:49:24;;;;;;;59.15;18.02;;;;;;;9.14;38.81;100642.97;5016253;28;20029;-78
2022/01/17 09:54:28;;;;;;;77.28;29.58;;;;;;;9.25;38.48;100632.25;5015931;28;20355;-79
2022/01/17 09:56:56;;;;;;;36.38;19.45;;;;;;;9.34;39.18;100644.97;5023103;28;20104;-79
2022/01/17 09:59:22;;;;;;;39.72;21.33;;;;;;;9.47;39.84;100642.22;5036557;28;20026;-79
2022/01/17 10:01:48;;;;;;;40.17;13.43;;;;;;;9.59;38.92;100630.53;5042860;28;20029;-79
2022/01/17 10:04:16;;;;;;;34.13;13.55;;;;;;;9.58;39.39;100613.56;5035015;28;20021;-79
2022/01/17 10:06:43;;;;;;;57.50;11.48;;;;;;;9.65;39.27;100636.28;5034483;28;20025;-79
2022/01/17 10:09:23;;;;;;;43.22;11.40;;;;;;;9.70;39.47;100623.34;5034719;28;20549;-80
2022/01/17 10:12:17;;;;;;;48.53;10.45;;;;;;;9.73;39.41;100607.00;5035129;28;20017;-79
2022/01/17 10:15:03;;;;;;;33.38;10.35;;;;;;;9.64;39.59;100596.13;5026771;28;20030;-80
2022/01/17 10:17:44;;;;;;;112.28;10.93;;;;;;;9.78;39.45;100590.53;5035590;28;20021;-80
2022/01/17 10:20:12;;;;;;;39.13;7.80;;;;;;;9.84;39.44;100566.75;5035109;28;20053;-79
2022/01/17 10:22:49;;;;;;;29.88;6.70;;;;;;;9.77;40.06;100580.75;5035634;28;20045;-79
2022/01/17 10:34:55;;;;;;;15.40;7.68;;;;;;;10.04;40.61;100526.66;5012747;28;20028;-80
2022/01/17 10:37:00;;;;;;;32.92;8.65;;;;;;;10.05;41.47;100533.75;5044505;28;20040;-83
2022/01/17 10:39:25;;;;;;;29.63;8.80;;;;;;;10.08;41.81;100530.81;5073993;28;20132;-79
2022/01/17 10:41:51;;;;;;;23.30;8.77;;;;;;;10.06;41.60;100495.16;5066544;28;20020;-78
2022/01/17 10:44:36;;;;;;;24.98;9.93;;;;;;;10.23;42.27;100530.47;5054223;28;20489;-81
2022/01/17 10:47:26;;;;;;;19.77;9.18;;;;;;;10.25;42.01;100498.94;5035534;28;20025;-79
2022/01/17 10:50:00;;;;;;;32.60;9.52;;;;;;;10.41;42.09;100506.59;5054002;28;20090;-83
2022/01/17 10:52:47;;;;;;;31.60;9.27;;;;;;;10.42;42.17;100510.13;5036474;28;20162;-81
2022/01/17 10:55:20;;;;;;;34.80;8.95;;;;;;;10.29;42.59;100491.47;5054029;28;20017;-80
2022/01/17 10:57:49;;;;;;;;;;;;;;;10.43;42.64;100503.78;5054651;28;20025;-80
2022/01/17 11:00:25;;;;;;;20.58;10.52;;;;;;;10.36;43.00;100498.06;5054168;28;19909;-80
2022/01/17 11:03:05;;;;;;;20.20;10.57;;;;;;;10.40;43.21;100504.03;5053876;28;20025;-80
2022/01/17 11:05:32;;;;;;;23.75;10.55;;;;;;;10.48;43.45;100490.81;5042988;28;20036;-80
2022/01/17 11:08:01;;;;;;;20.98;9.57;;;;;;;10.43;43.81;100504.63;5068384;28;20036;-81
2022/01/17 11:10:34;;;;;;;31.30;10.38;;;;;;;10.53;43.50;100476.00;5053975;28;20116;-81
2022/01/17 11:13:02;;;;;;;44.97;11.90;;;;;;;10.56;43.93;100458.75;5035809;28;20048;-80
2022/01/17 11:15:33;;;;;;;23.52;10.25;;;;;;;10.61;43.90;100457.38;5054090;28;20029;-79
2022/01/17 11:18:05;;;;;;;21.60;10.45;;;;;;;10.77;43.81;100444.34;5053296;28;20025;-79
2022/01/17 11:20:33;;;;;;;27.92;9.95;;;;;;;10.88;43.27;100446.13;5048377;28;20090;-79
2022/01/17 11:23:00;;;;;;;25.85;11.35;;;;;;;10.97;43.14;100434.56;5033853;28;20032;-80
2022/01/17 11:25:32;;;;;;;25.50;11.77;;;;;;;11.05;43.02;100415.06;5035912;28;20029;-78
2022/01/17 11:28:00;;;;;;;20.08;10.30;;;;;;;11.14;42.78;100428.56;5040742;28;20133;-79
2022/01/17 11:30:28;;;;;;;33.75;12.05;;;;;;;11.27;42.76;100436.44;5053278;28;20032;-80
2022/01/17 11:32:55;;;;;;;23.85;10.75;;;;;;;11.36;43.22;100419.47;5053172;28;20356;-80
2022/01/17 11:35:23;;;;;;;31.75;11.65;;;;;;;11.35;42.92;100423.16;5053666;28;20027;-79
2022/01/17 11:38:00;;;;;;;43.63;11.95;;;;;;;11.25;43.32;100411.50;5036059;28;20090;-78
2022/01/17 11:40:33;;;;;;;45.78;11.98;;;;;;;11.25;43.71;100414.19;5054111;28;20028;-77
2022/01/17 11:43:00;;;;;;;26.73;12.63;;;;;;;11.14;43.59;100427.72;5055078;28;20028;-78
2022/01/17 11:45:29;;;;;;;45.20;12.20;;;;;;;11.05;43.67;100426.69;5037362;28;20049;-78